Time;durP1;ratioP1;P1;durP2;ratioP2;P2;SDS_P1;SDS_P2;PMS_P1;PMS_P2;Temp;Humidity;BMP_temperature;BMP_pressure;BME280_temperature;BME280_humidity;BME280_pressure;Samples;Min_cycle;Max_cycle;Signal;HPM_P1;HPM_P2
2022/03/07 00:01:35;;;;;;;;;;;;;;;16.37;58.40;101109.53;5035016;28;1992;-33
2022/03/07 00:04:02;;;;;;;;;;;;;;;16.34;57.60;101104.41;5034571;28;1970;-34
2022/03/07 00:06:29;;;;;;;;;;;;;;;16.36;58.50;101114.00;5035137;28;1666;-32
2022/03/07 00:09:04;;;;;;;;;;;;;;;16.37;58.16;101107.69;5034740;28;1994;-33
2022/03/07 00:11:30;;;;;;;;;;;;;;;16.34;58.32;101093.75;5034882;28;1952;-33
2022/03/07 00:13:57;;;;;;;;;;;;;;;16.39;57.27;101095.09;5034368;28;1914;-32
2022/03/07 00:16:38;;;;;;;;;;;;;;;16.37;58.27;101085.50;5023638;28;1839;-32
2022/03/07 00:19:05;;;;;;;;;;;;;;;16.37;56.81;101088.16;5034488;28;1825;-33
2022/03/07 00:21:40;;;;;;;;;;;;;;;16.32;58.01;101083.16;5034394;28;1214;-33
2022/03/07 00:24:07;;;;;;;;;;;;;;;16.35;57.16;101084.75;5027052;28;1835;-33
2022/03/07 00:26:36;;;;;;;;;;;;;;;16.34;56.83;101069.72;5032906;28;1963;-32
2022/03/07 00:29:02;;;;;;;;;;;;;;;16.32;57.40;101082.31;5034465;28;1154;-33
2022/03/07 00:31:29;;;;;;;;;;;;;;;16.34;57.69;101065.22;5034088;28;1459;-32
2022/03/07 00:34:04;;;;;;;;;;;;;;;16.33;56.47;101073.34;5033802;28;1902;-33
2022/03/07 00:36:30;;;;;;;;;;;;;;;16.39;57.70;101067.56;5031054;28;1437;-33
2022/03/07 00:38:57;;;;;;;;;;;;;;;16.36;57.17;101052.63;5033024;28;1921;-33
2022/03/07 00:41:24;;;;;;;;;;;;;;;16.46;57.29;101066.16;5034078;28;1762;-33
2022/03/07 00:43:52;;;;;;;;;;;;;;;16.37;56.81;101054.31;5034650;28;1166;-32
2022/03/07 00:46:19;;;;;;;;;;;;;;;16.38;56.95;101044.50;5033811;28;1796;-32
2022/03/07 00:48:47;;;;;;;;;;;;;;;16.39;57.75;101046.19;5033934;28;1588;-33
2022/03/07 00:51:19;;;;;;;;;;;;;;;16.41;57.24;101046.94;5034275;28;1799;-33
2022/03/07 00:53:49;;;;;;;;;;;;;;;16.35;56.45;101047.41;5033866;28;2008;-33
2022/03/07 00:56:17;;;;;;;;;;;;;;;16.37;57.82;101032.97;5033930;28;1546;-33
2022/03/07 00:58:44;;;;;;;;;;;;;;;16.37;57.79;101040.97;5033748;28;1012;-33
2022/03/07 01:01:11;;;;;;;;;;;;;;;16.39;57.39;101046.19;5033665;28;1819;-33
2022/03/07 01:03:52;;;;;;;;;;;;;;;16.39;57.29;101024.84;5032007;28;1318;-32
2022/03/07 01:06:24;;;;;;;;;;;;;;;16.41;57.71;101034.47;5024515;28;1961;-33
2022/03/07 01:08:54;;;;;;;;;;;;;;;16.43;56.67;101021.00;5033273;28;1776;-33
2022/03/07 01:11:21;;;;;;;;;;;;;;;16.39;57.46;101030.19;5033125;28;1621;-33
2022/03/07 01:13:49;;;;;;;;;;;;;;;16.37;57.56;101021.44;5023347;28;1909;-34
2022/03/07 01:16:16;;;;;;;;;;;;;;;16.40;57.14;101037.25;5033334;28;1555;-32
2022/03/07 01:18:43;;;;;;;;;;;;;;;16.37;56.67;101032.13;5033298;28;1551;-32
2022/03/07 01:21:10;;;;;;;;;;;;;;;16.36;56.65;101020.59;5033000;28;1369;-32
2022/03/07 01:23:45;;;;;;;;;;;;;;;16.34;56.82;101027.03;5032854;28;1768;-33
2022/03/07 01:26:11;;;;;;;;;;;;;;;16.32;56.56;101015.59;5026253;28;1730;-32
2022/03/07 01:28:39;;;;;;;;;;;;;;;16.36;57.55;101028.59;5033743;28;1088;-33
2022/03/07 01:31:06;;;;;;;;;;;;;;;16.32;57.43;101019.13;5032891;28;1913;-32
2022/03/07 01:33:35;;;;;;;;;;;;;;;16.31;56.62;101028.06;5032878;28;1968;-33
2022/03/07 01:36:05;;;;;;;;;;;;;;;16.26;56.74;101015.06;5021994;28;1982;-32
2022/03/07 01:38:32;;;;;;;;;;;;;;;16.25;57.63;101018.72;5025198;28;1673;-33
2022/03/07 01:40:59;;;;;;;;;;;;;;;16.27;57.71;101032.81;5033113;28;1818;-33
2022/03/07 01:43:27;;;;;;;;;;;;;;;16.28;57.66;101029.16;5032172;28;1726;-33
2022/03/07 01:45:55;;;;;;;;;;;;;;;16.29;57.09;101035.34;5023294;28;1788;-33
2022/03/07 01:48:25;;;;;;;;;;;;;;;16.27;57.69;101027.47;5033282;28;1931;-32
2022/03/07 01:50:52;;;;;;;;;;;;;;;16.30;56.90;101032.56;5024438;28;1727;-33
2022/03/07 01:53:20;;;;;;;;;;;;;;;16.26;57.26;101030.25;5024073;28;1972;-33
2022/03/07 01:55:47;;;;;;;;;;;;;;;16.27;56.76;101021.25;5032811;28;1499;-33
2022/03/07 01:58:19;;;;;;;;;;;;;;;16.25;56.36;101018.72;5033501;28;974;-32
2022/03/07 02:00:47;;;;;;;;;;;;;;;16.28;57.52;101026.50;5032989;28;1306;-32
2022/03/07 02:03:14;;;;;;;;;;;;;;;16.28;57.18;101029.16;5032225;28;1983;-33
2022/03/07 02:05:41;;;;;;;;;;;;;;;16.24;57.05;101025.00;5032345;28;1783;-32
2022/03/07 02:08:09;;;;;;;;;;;;;;;16.24;56.59;101034.84;5031719;28;1581;-33
2022/03/07 02:10:35;;;;;;;;;;;;;;;16.27;57.33;101024.81;5032920;28;1680;-33
2022/03/07 02:13:12;;;;;;;;;;;;;;;16.28;56.18;101037.16;5033010;28;1084;-33
2022/03/07 02:15:42;;;;;;;;;;;;;;;16.26;57.16;101032.91;5032922;28;1843;-32
2022/03/07 02:18:09;;;;;;;;;;;;;;;16.25;56.12;101050.75;5024771;28;1143;-33
2022/03/07 02:20:39;;;;;;;;;;;;;;;16.27;57.18;101054.16;5036192;28;1900;-33
2022/03/07 02:23:07;;;;;;;;;;;;;;;16.27;57.16;101059.50;5036732;28;1832;-33
2022/03/07 02:25:34;;;;;;;;;;;;;;;16.26;56.81;101056.94;5036335;28;1841;-32
2022/03/07 02:28:01;;;;;;;;;;;;;;;16.30;57.45;101061.06;5036399;28;1636;-32
2022/03/07 02:30:29;;;;;;;;;;;;;;;16.27;56.12;101056.81;5036002;28;1601;-32
2022/03/07 02:32:58;;;;;;;;;;;;;;;16.29;56.23;101062.03;5024001;28;1593;-33
2022/03/07 02:35:28;;;;;;;;;;;;;;;16.32;56.82;101066.31;5036209;28;1902;-33
2022/03/07 02:37:55;;;;;;;;;;;;;;;16.36;57.02;101071.31;5036515;28;1124;-32
2022/03/07 02:40:27;;;;;;;;;;;;;;;16.29;57.22;101056.69;5036722;28;1087;-33
2022/03/07 02:43:01;;;;;;;;;;;;;;;16.27;57.13;101067.50;5036387;28;1454;-33
2022/03/07 02:45:28;;;;;;;;;;;;;;;16.26;57.00;101068.44;5034327;28;1852;-32
2022/03/07 02:47:56;;;;;;;;;;;;;;;16.26;56.67;101062.25;5036482;28;1626;-33
2022/03/07 02:50:23;;;;;;;;;;;;;;;16.32;55.86;101060.97;5036507;28;1065;-33
2022/03/07 02:52:49;;;;;;;;;;;;;;;16.26;56.94;101060.44;5036208;28;1726;-33
2022/03/07 02:55:18;;;;;;;;;;;;;;;16.24;57.37;101062.38;5036259;28;1906;-32
2022/03/07 02:57:50;;;;;;;;;;;;;;;16.28;55.90;101060.34;5030614;28;1617;-33
2022/03/07 03:02:52;;;;;;;;;;;;;;;16.28;56.52;101063.00;4162709;26;2954;-35
2022/03/07 03:05:18;;;;;;;;;;;;;;;16.28;55.97;101049.66;5007950;28;1591;-34
2022/03/07 03:07:47;;;;;;;;;;;;;;;16.25;57.23;101050.75;5006183;28;1925;-35
2022/03/07 03:10:16;;;;;;;;;;;;;;;16.26;55.98;101057.78;5003852;28;1584;-35
2022/03/07 03:12:45;;;;;;;;;;;;;;;16.26;57.27;101062.25;5002894;28;1417;-35
2022/03/07 03:15:25;;;;;;;;;;;;;;;16.26;56.72;101056.94;4996803;28;1973;-35
2022/03/07 03:17:52;;;;;;;;;;;;;;;16.27;57.02;101056.81;5003298;28;1825;-35
2022/03/07 03:20:18;;;;;;;;;;;;;;;16.26;55.64;101057.78;4996664;28;2051;-35
2022/03/07 03:22:48;;;;;;;;;;;;;;;16.32;56.83;101048.47;5004107;28;1170;-35
2022/03/07 03:25:16;;;;;;;;;;;;;;;16.30;57.00;101059.25;5003664;28;1745;-35
2022/03/07 03:27:47;;;;;;;;;;;;;;;16.27;56.25;101054.16;5006826;28;1774;-35
2022/03/07 03:30:20;;;;;;;;;;;;;;;16.24;57.05;101048.19;4995359;28;1789;-33
2022/03/07 03:32:48;;;;;;;;;;;;;;;16.25;55.68;101056.09;5001979;28;2064;-33
2022/03/07 03:35:22;;;;;;;;;;;;;;;16.22;56.02;101048.28;5001926;28;1906;-33
2022/03/07 03:37:52;;;;;;;;;;;;;;;16.23;55.69;101059.81;5009506;28;1803;-35
2022/03/07 03:40:20;;;;;;;;;;;;;;;16.20;57.02;101049.38;5002846;28;1065;-35
2022/03/07 03:42:47;;;;;;;;;;;;;;;16.19;57.22;101045.81;5008774;28;1727;-35
2022/03/07 03:45:16;;;;;;;;;;;;;;;16.21;56.15;101043.91;5011232;28;1761;-35
2022/03/07 03:47:46;;;;;;;;;;;;;;;16.28;55.75;101055.84;4999725;28;1838;-34
2022/03/07 03:50:14;;;;;;;;;;;;;;;16.45;54.95;101048.41;4996403;28;1758;-35
2022/03/07 03:52:42;;;;;;;;;;;;;;;16.39;56.02;101051.53;4999439;28;1619;-37
2022/03/07 03:55:27;;;;;;;;;;;;;;;16.34;56.89;101048.38;5004860;28;2035;-35
2022/03/07 03:57:57;;;;;;;;;;;;;;;16.33;56.91;101057.31;5008777;28;1092;-34
2022/03/07 04:00:29;;;;;;;;;;;;;;;16.34;56.31;101054.56;5000710;28;1393;-35
2022/03/07 04:02:58;;;;;;;;;;;;;;;16.38;56.68;101044.50;4996263;28;1582;-35
2022/03/07 04:05:28;;;;;;;;;;;;;;;16.46;56.71;101047.47;5005939;28;1635;-35
2022/03/07 04:07:54;;;;;;;;;;;;;;;16.45;55.35;101041.28;5005065;28;1641;-34
2022/03/07 04:10:20;;;;;;;;;;;;;;;16.59;55.54;101052.75;4997813;28;1008;-35
2022/03/07 04:12:50;;;;;;;;;;;;;;;16.62;55.25;101048.03;5004016;28;1578;-35
2022/03/07 04:15:17;;;;;;;;;;;;;;;16.63;55.97;101032.88;5012907;28;1971;-35
2022/03/07 04:17:45;;;;;;;;;;;;;;;16.64;55.60;101035.44;5008918;28;1285;-34
2022/03/07 04:20:13;;;;;;;;;;;;;;;16.72;55.78;101047.38;5004328;28;1606;-34
2022/03/07 04:25:25;;;;;;;;;;;;;;;16.77;55.48;101040.72;5012440;28;2361;-36
2022/03/07 04:27:55;;;;;;;;;;;;;;;16.81;54.80;101044.91;4998541;28;1092;-35
2022/03/07 04:30:25;;;;;;;;;;;;;;;16.83;55.64;101047.44;5000582;28;2011;-35
2022/03/07 04:32:57;;;;;;;;;;;;;;;16.86;54.79;101049.91;5004172;28;1455;-36
2022/03/07 04:35:24;;;;;;;;;;;;;;;16.88;55.37;101058.66;5000410;28;1906;-35
2022/03/07 04:37:50;;;;;;;;;;;;;;;16.88;55.30;101045.28;5000898;28;1369;-35
2022/03/07 04:40:18;;;;;;;;;;;;;;;16.92;54.65;101037.91;5006140;28;1147;-35
2022/03/07 04:42:47;;;;;;;;;;;;;;;16.97;54.95;101041.06;4999265;28;1861;-34
2022/03/07 04:45:14;;;;;;;;;;;;;;;16.96;54.15;101050.91;5001328;28;1761;-34
2022/03/07 04:47:42;;;;;;;;;;;;;;;17.02;54.43;101053.13;5000488;28;1623;-35
2022/03/07 04:50:14;;;;;;;;;;;;;;;17.07;54.05;101034.09;5005303;28;1607;-35
2022/03/07 04:52:43;;;;;;;;;;;;;;;17.03;54.41;101028.13;4999007;28;1326;-35
2022/03/07 04:55:11;;;;;;;;;;;;;;;17.05;53.97;101030.66;5008729;28;1906;-35
2022/03/07 04:57:37;;;;;;;;;;;;;;;17.06;53.72;101022.53;5008564;28;1578;-35
2022/03/07 05:00:05;;;;;;;;;;;;;;;17.12;53.88;101049.75;5012504;28;1956;-35
2022/03/07 05:02:32;;;;;;;;;;;;;;;17.07;54.00;101031.41;5003800;28;1520;-35
2022/03/07 05:04:58;;;;;;;;;;;;;;;17.11;53.80;101046.25;4999385;28;1094;-35
2022/03/07 05:07:28;;;;;;;;;;;;;;;17.10;54.44;101034.69;5003408;28;1993;-35
2022/03/07 05:09:55;;;;;;;;;;;;;;;17.10;53.68;101023.16;5010493;28;1923;-35
2022/03/07 05:12:21;;;;;;;;;;;;;;;17.15;53.62;101028.13;5009746;28;1662;-34
2022/03/07 05:14:51;;;;;;;;;;;;;;;17.16;53.86;101024.50;5012649;28;1906;-35
2022/03/07 05:17:20;;;;;;;;;;;;;;;17.16;54.24;101030.69;5003493;28;1517;-35
2022/03/07 05:19:48;;;;;;;;;;;;;;;17.14;53.59;101027.28;5003148;28;1544;-35
2022/03/07 05:22:14;;;;;;;;;;;;;;;17.17;54.45;101031.53;5005691;28;2056;-35
2022/03/07 05:24:45;;;;;;;;;;;;;;;17.17;54.57;101024.41;5005885;28;1816;-34
2022/03/07 05:27:13;;;;;;;;;;;;;;;17.17;54.00;101026.19;5005577;28;1785;-35
2022/03/07 05:29:39;;;;;;;;;;;;;;;17.12;54.01;101028.38;5008744;28;1656;-35
2022/03/07 05:32:06;;;;;;;;;;;;;;;17.22;53.60;101029.38;5004293;28;1769;-35
2022/03/07 05:34:33;;;;;;;;;;;;;;;17.37;54.29;101033.56;5001882;28;1907;-35
2022/03/07 05:37:03;;;;;;;;;;;;;;;17.39;54.62;101026.28;4999737;28;1811;-35
2022/03/07 05:39:31;;;;;;;;;;;;;;;17.60;54.59;101022.88;5002675;28;1549;-34
2022/03/07 05:42:02;;;;;;;;;;;;;;;17.61;54.56;101027.28;5009184;28;1583;-35
2022/03/07 05:44:28;;;;;;;;;;;;;;;17.56;54.17;101016.06;5009515;28;1283;-35
2022/03/07 05:46:57;;;;;;;;;;;;;;;17.59;54.62;101021.19;5005473;28;1780;-35
2022/03/07 05:49:24;;;;;;;;;;;;;;;17.51;54.77;101024.47;5004470;28;1923;-35
2022/03/07 05:52:00;;;;;;;;;;;;;;;17.50;54.41;101017.41;5005070;28;1663;-35
2022/03/07 05:54:29;;;;;;;;;;;;;;;17.53;55.10;101016.31;5010558;28;1906;-35
2022/03/07 05:57:01;;;;;;;;;;;;;;;17.61;54.87;101025.44;5013680;28;1612;-35
2022/03/07 05:59:33;;;;;;;;;;;;;;;17.70;54.34;101014.00;5005787;28;1651;-35
2022/03/07 06:02:03;;;;;;;;;;;;;;;17.72;54.19;101016.56;5008091;28;2061;-35
2022/03/07 06:04:33;;;;;;;;;;;;;;;17.99;54.32;101016.25;5014890;28;1523;-32
2022/03/07 06:06:59;;;;;;;;;;;;;;;18.09;54.09;101019.88;5012927;28;1880;-34
2022/03/07 06:09:26;;;;;;;;;;;;;;;17.88;54.82;101006.38;5014197;28;1599;-32
2022/03/07 06:11:55;;;;;;;;;;;;;;;17.89;55.06;101012.59;5015180;28;1668;-32
2022/03/07 06:14:24;;;;;;;;;;;;;;;18.06;54.65;101008.56;5011730;28;1906;-31
2022/03/07 06:16:57;;;;;;;;;;;;;;;18.00;54.62;101009.06;5011031;28;1617;-32
2022/03/07 06:19:24;;;;;;;;;;;;;;;18.00;54.48;101019.75;5013563;28;1839;-31
2022/03/07 06:21:54;;;;;;;;;;;;;;;17.92;53.61;101016.84;5010293;28;1950;-31
2022/03/07 06:24:23;;;;;;;;;;;;;;;17.65;54.04;101013.53;5008649;28;1606;-33
2022/03/07 06:26:50;;;;;;;;;;;;;;;17.79;52.70;101019.63;5013818;28;1488;-31
2022/03/07 06:29:19;;;;;;;;;;;;;;;17.85;53.05;101017.34;5015002;28;1531;-32
2022/03/07 06:31:50;;;;;;;;;;;;;;;17.95;52.96;101005.91;5013888;28;1491;-31
2022/03/07 06:34:20;;;;;;;;;;;;;;;17.92;53.19;101016.84;5006815;28;1429;-31
2022/03/07 06:36:50;;;;;;;;;;;;;;;17.94;54.13;101014.91;5003602;28;2027;-31
2022/03/07 06:39:25;;;;;;;;;;;;;;;17.94;53.44;101014.91;5006199;28;1437;-32
2022/03/07 06:41:54;;;;;;;;;;;;;;;18.04;53.24;101011.34;5010939;28;1575;-31
2022/03/07 06:44:23;;;;;;;;;;;;;;;18.10;53.70;101020.72;5010776;28;1314;-31
2022/03/07 06:46:59;;;;;;;;;;;;;;;18.04;53.63;101010.50;5012378;28;1773;-31
2022/03/07 06:49:31;;;;;;;;;;;;;;;18.17;53.44;101011.22;5014112;28;1564;-31
2022/03/07 06:52:01;;;;;;;;;;;;;;;18.28;53.50;101016.56;5011268;28;1637;-33
2022/03/07 06:54:29;;;;;;;;;;;;;;;18.34;53.34;101017.03;5006584;28;1678;-33
2022/03/07 06:56:58;;;;;;;;;;;;;;;18.46;52.99;101016.91;5005340;28;1902;-33
2022/03/07 06:59:27;;;;;;;;;;;;;;;18.48;53.08;101008.72;5010361;28;1380;-33
2022/03/07 07:01:55;;;;;;;;;;;;;;;18.50;53.26;101006.75;5009358;28;1974;-33
2022/03/07 07:04:25;;;;;;;;;;;;;;;18.57;52.84;101013.31;5010332;28;1529;-33
2022/03/07 07:06:53;;;;;;;;;;;;;;;18.65;52.99;101024.25;5009330;28;1553;-33
2022/03/07 07:09:20;;;;;;;;;;;;;;;18.66;53.06;101012.56;5014054;28;1519;-33
2022/03/07 07:11:47;;;;;;;;;;;;;;;18.47;53.12;101007.03;5009352;28;2022;-31
2022/03/07 07:14:16;;;;;;;;;;;;;;;18.25;50.97;101029.34;5015107;28;1788;-31
2022/03/07 07:16:45;;;;;;;;;;;;;;;18.27;51.07;101022.91;5014321;28;1949;-32
2022/03/07 07:19:15;;;;;;;;;;;;;;;18.10;52.08;101034.09;5004036;28;1972;-32
2022/03/07 07:21:48;;;;;;;;;;;;;;;18.01;52.60;101029.50;4999208;28;1818;-32
2022/03/07 07:24:21;;;;;;;;;;;;;;;18.01;52.22;101034.84;4998595;28;1926;-32
2022/03/07 07:26:48;;;;;;;;;;;;;;;17.92;53.01;101032.91;4998855;28;1762;-32
2022/03/07 07:29:15;;;;;;;;;;;;;;;17.92;52.72;101022.19;4996568;28;1090;-32
2022/03/07 07:31:44;;;;;;;;;;;;;;;17.89;52.54;101029.50;5009145;28;1767;-31
2022/03/07 07:34:13;;;;;;;;;;;;;;;17.85;52.87;101038.75;5005793;28;1615;-31
2022/03/07 07:36:54;;;;;;;;;;;;;;;17.80;52.90;101018.63;5005194;28;1971;-31
2022/03/07 07:39:26;;;;;;;;;;;;;;;17.74;53.18;101025.31;5006686;28;1734;-31
2022/03/07 07:41:56;;;;;;;;;;;;;;;17.71;53.05;101030.94;5001280;28;1926;-32
2022/03/07 07:44:24;;;;;;;;;;;;;;;17.66;53.55;101022.41;4996277;28;1072;-32
2022/03/07 07:46:53;;;;;;;;;;;;;;;17.64;53.63;101025.19;5001369;28;1435;-32
2022/03/07 07:49:24;;;;;;;;;;;;;;;17.62;53.61;101026.28;5006485;28;1471;-32
2022/03/07 07:51:52;;;;;;;;;;;;;;;17.58;53.95;101016.81;5004768;28;1825;-31
2022/03/07 07:54:21;;;;;;;;;;;;;;;17.56;54.08;101021.44;4997238;28;1621;-32
2022/03/07 07:56:52;;;;;;;;;;;;;;;17.55;54.19;101033.06;5001187;28;2041;-32
2022/03/07 07:59:21;;;;;;;;;;;;;;;17.56;54.06;101029.44;5000598;28;1005;-32
2022/03/07 08:01:50;;;;;;;;;;;;;;;17.51;53.78;101013.78;5010901;28;1793;-32
2022/03/07 08:04:20;;;;;;;;;;;;;;;17.48;54.36;101030.88;5009634;28;1793;-32
2022/03/07 08:06:49;;;;;;;;;;;;;;;17.47;54.47;101028.34;5010518;28;1835;-32
2022/03/07 08:09:16;;;;;;;;;;;;;;;17.42;54.10;101030.53;5011389;28;1531;-34
2022/03/07 08:11:43;;;;;;;;;;;;;;;17.40;54.04;101029.78;5014258;28;1753;-34
2022/03/07 08:14:13;;;;;;;;;;;;;;;17.37;54.53;101027.34;5015070;28;1151;-34
2022/03/07 08:16:39;;;;;;;;;;;;;;;17.41;54.26;101026.16;5010517;28;1911;-34
2022/03/07 08:19:19;;;;;;;;;;;;;;;17.37;54.14;101027.34;5003099;28;2046;-34
2022/03/07 08:21:48;;;;;;;;;;;;;;;17.31;54.08;101026.00;4997746;28;1785;-34
2022/03/07 08:24:17;;;;;;;;;;;;;;;17.30;54.62;101029.63;5006549;28;1670;-34
2022/03/07 08:26:46;;;;;;;;;;;;;;;17.24;54.26;101009.56;5009096;28;1819;-34
2022/03/07 08:29:18;;;;;;;;;;;;;;;17.27;54.80;101022.72;5014904;28;1078;-34
2022/03/07 08:31:47;;;;;;;;;;;;;;;17.24;54.16;101022.09;5008669;28;1953;-34
2022/03/07 08:34:16;;;;;;;;;;;;;;;17.20;54.79;101021.47;5004950;28;1832;-33
2022/03/07 08:36:46;;;;;;;;;;;;;;;17.21;54.78;101031.22;5011704;28;1994;-33
2022/03/07 08:39:16;;;;;;;;;;;;;;;17.18;54.77;101022.56;5002815;28;1604;-34
2022/03/07 08:41:46;;;;;;;;;;;;;;;17.21;53.98;101033.88;5003348;28;1527;-34
2022/03/07 08:44:12;;;;;;;;;;;;;;;17.15;54.02;101023.66;5000412;28;1091;-34
2022/03/07 08:46:42;;;;;;;;;;;;;;;17.16;54.88;101029.84;5009079;28;1808;-33
2022/03/07 08:49:10;;;;;;;;;;;;;;;17.13;54.84;101030.94;5006960;28;1832;-34
2022/03/07 08:51:39;;;;;;;;;;;;;;;17.13;55.02;101019.38;5004614;28;1673;-34
2022/03/07 08:54:07;;;;;;;;;;;;;;;17.07;55.00;101021.56;5005402;28;1964;-34
2022/03/07 08:56:33;;;;;;;;;;;;;;;17.10;55.01;101028.50;5005160;28;1989;-34
2022/03/07 08:59:03;;;;;;;;;;;;;;;17.10;55.02;101026.66;5007120;28;1055;-34
2022/03/07 09:01:29;;;;;;;;;;;;;;;17.07;54.15;101021.56;5007547;28;1964;-33
2022/03/07 09:04:00;;;;;;;;;;;;;;;17.08;53.96;101017.91;5010453;28;1837;-34
2022/03/07 09:06:26;;;;;;;;;;;;;;;17.10;55.04;101021.31;5009696;28;1738;-34
2022/03/07 09:08:54;;;;;;;;;;;;;;;17.09;53.94;101022.31;5001852;28;1745;-33
2022/03/07 09:11:20;;;;;;;;;;;;;;;17.04;54.18;101021.78;5012443;28;1791;-34
2022/03/07 09:13:49;;;;;;;;;;;;;;;17.05;54.12;101012.81;5005304;28;1000;-34
2022/03/07 09:16:19;;;;;;;;;;;;;;;17.01;55.08;101016.69;4998611;28;1910;-33
2022/03/07 09:18:48;;;;;;;;;;;;;;;17.01;54.50;101016.69;5007938;28;1607;-33
2022/03/07 09:21:23;;;;;;;;;;;;;;;17.01;54.37;101011.34;5007078;28;1759;-34
2022/03/07 09:23:52;;;;;;;;;;;;;;;17.01;54.42;101015.81;5006809;28;1678;-34
2022/03/07 09:26:18;;;;;;;;;;;;;;;17.01;54.80;101014.03;5002604;28;1580;-33
2022/03/07 09:28:47;;;;;;;;;;;;;;;17.04;53.95;101024.47;5005408;28;1073;-33
2022/03/07 09:31:14;;;;;;;;;;;;;;;17.01;54.45;101016.69;5011596;28;1963;-33
2022/03/07 09:33:44;;;;;;;;;;;;;;;16.99;54.54;101013.28;5005542;28;1416;-34
2022/03/07 09:36:13;;;;;;;;;;;;;;;17.01;54.45;101011.34;5011826;28;1902;-34
2022/03/07 09:38:52;;;;;;;;;;;;;;;16.99;54.32;101023.97;5009055;28;1627;-33
2022/03/07 09:41:20;;;;;;;;;;;;;;;16.99;53.94;101018.63;4996254;28;2000;-33
2022/03/07 09:43:50;;;;;;;;;;;;;;;16.99;55.42;101023.97;4993685;28;1095;-33
2022/03/07 09:46:16;;;;;;;;;;;;;;;16.95;54.11;101009.16;5000227;28;1770;-33
2022/03/07 09:48:53;;;;;;;;;;;;;;;16.95;54.32;101010.94;5002228;28;1186;-33
2022/03/07 09:51:20;;;;;;;;;;;;;;;16.92;54.09;101009.38;5003552;28;1614;-33
2022/03/07 09:53:50;;;;;;;;;;;;;;;16.95;54.00;101010.94;5003051;28;1914;-33
2022/03/07 09:56:19;;;;;;;;;;;;;;;16.93;54.37;101003.06;5003371;28;1985;-33
2022/03/07 09:58:47;;;;;;;;;;;;;;;16.94;53.98;101018.13;4993889;28;1092;-33
2022/03/07 10:01:14;;;;;;;;;;;;;;;16.94;54.79;101012.78;4995920;28;2007;-33
2022/03/07 10:03:48;;;;;;;;;;;;;;;16.93;54.18;101021.78;5006326;28;1946;-33
2022/03/07 10:06:17;;;;;;;;;;;;;;;16.95;54.28;101009.16;5009786;28;1578;-33
2022/03/07 10:08:56;;;;;;;;;;;;;;;17.02;54.05;101009.53;5011626;28;1789;-33
2022/03/07 10:11:22;;;;;;;;;;;;;;;17.01;54.22;101014.03;5007057;28;1752;-33
2022/03/07 10:14:06;;;;;;;;;;;;;;;17.01;53.91;101018.50;5002554;28;1270;-33
2022/03/07 10:16:43;;;;;;;;;;;;;;;17.04;54.85;101002.25;5001167;28;1993;-33
2022/03/07 10:19:20;;;;;;;;;;;;;;;17.01;54.80;101006.00;5000872;28;1562;-33
2022/03/07 10:21:51;;;;;;;;;;;;;;;17.00;54.36;101009.63;5006496;28;1475;-33
2022/03/07 10:24:32;;;;;;;;;;;;;;;16.99;54.43;101007.94;4997999;28;1667;-33
2022/03/07 10:27:02;;;;;;;;;;;;;;;16.98;53.92;101000.88;5003014;28;1915;-33
2022/03/07 10:29:31;;;;;;;;;;;;;;;16.98;54.30;101000.88;5013526;28;995;-33
2022/03/07 10:32:11;;;;;;;;;;;;;;;16.96;54.41;100997.47;5006706;28;1805;-33
2022/03/07 10:34:39;;;;;;;;;;;;;;;16.97;54.52;101004.53;5001793;28;1357;-31
2022/03/07 10:37:06;;;;;;;;;;;;;;;16.96;53.96;100992.13;5003136;28;1910;-31
2022/03/07 10:39:34;;;;;;;;;;;;;;;16.99;54.29;100999.06;5005110;28;1879;-31
2022/03/07 10:42:02;;;;;;;;;;;;;;;16.96;53.88;100999.31;5002039;28;1617;-32
2022/03/07 10:44:34;;;;;;;;;;;;;;;16.96;54.05;100992.13;5013738;28;1202;-31
2022/03/07 10:47:11;;;;;;;;;;;;;;;16.93;53.93;100989.72;5001690;28;1757;-33
2022/03/07 10:49:47;;;;;;;;;;;;;;;16.93;54.36;100986.16;5001251;28;1534;-34
2022/03/07 10:52:17;;;;;;;;;;;;;;;16.98;54.47;100998.22;5012236;28;1605;-33
2022/03/07 10:54:58;;;;;;;;;;;;;;;16.93;54.01;100976.34;5012117;28;1774;-33
2022/03/07 10:57:28;;;;;;;;;;;;;;;16.97;55.01;100982.28;5002715;28;1979;-33
2022/03/07 10:59:55;;;;;;;;;;;;;;;17.00;54.32;100977.56;4997019;28;1867;-33
2022/03/07 11:02:22;;;;;;;;;;;;;;;17.01;54.26;100971.28;4996538;28;1958;-34
2022/03/07 11:04:49;;;;;;;;;;;;;;;17.02;54.01;100970.28;5014658;28;1080;-33
2022/03/07 11:07:16;;;;;;;;;;;;;;;17.03;54.29;100977.34;5005607;28;1765;-33
2022/03/07 11:09:43;;;;;;;;;;;;;;;17.03;53.97;100982.69;5007045;28;1757;-33
2022/03/07 11:12:14;;;;;;;;;;;;;;;17.01;53.83;100962.38;5003044;28;1789;-33
2022/03/07 11:14:44;;;;;;;;;;;;;;;16.99;55.06;100957.19;5014813;28;1690;-35
2022/03/07 11:17:12;;;;;;;;;;;;;;;17.05;54.61;100964.72;5006131;28;1887;-33
2022/03/07 11:19:43;;;;;;;;;;;;;;;16.99;54.94;100970.53;5003146;28;1781;-33
2022/03/07 11:22:14;;;;;;;;;;;;;;;17.01;54.78;100957.03;5001725;28;1987;-33
2022/03/07 11:24:41;;;;;;;;;;;;;;;17.05;54.61;100953.16;4999217;28;1927;-31
2022/03/07 11:27:09;;;;;;;;;;;;;;;17.06;54.70;100955.72;5008743;28;1856;-31
2022/03/07 11:29:37;;;;;;;;;;;;;;;17.03;54.43;100952.44;5016186;28;1066;-31
2022/03/07 11:32:05;;;;;;;;;;;;;;;17.03;54.88;100936.41;5008980;28;1527;-31
2022/03/07 11:34:33;;;;;;;;;;;;;;;17.03;54.43;100957.78;5005354;28;1815;-31
2022/03/07 11:37:00;;;;;;;;;;;;;;;17.03;54.36;100942.63;5005721;28;1911;-31
2022/03/07 11:39:30;;;;;;;;;;;;;;;17.02;54.05;100948.91;5006916;28;1631;-31
2022/03/07 11:42:07;;;;;;;;;;;;;;;17.02;54.71;100932.88;5006076;28;1678;-33
2022/03/07 11:44:34;;;;;;;;;;;;;;;17.02;54.27;100927.53;5015744;28;2042;-33
2022/03/07 11:47:17;;;;;;;;;;;;;;;17.04;54.27;100930.94;5005393;28;1742;-34
2022/03/07 11:49:56;;;;;;;;;;;;;;;17.04;53.92;100914.91;5006096;28;2035;-33
2022/03/07 11:52:23;;;;;;;;;;;;;;;17.07;54.58;100914.69;5002981;28;1806;-31
2022/03/07 11:54:51;;;;;;;;;;;;;;;17.04;54.17;100904.22;5006941;28;1954;-32
2022/03/07 11:57:18;;;;;;;;;;;;;;;17.10;54.42;100919.78;5013365;28;1914;-32
2022/03/07 11:59:46;;;;;;;;;;;;;;;17.07;54.44;100914.69;5014895;28;1415;-32
2022/03/07 12:02:18;;;;;;;;;;;;;;;17.08;54.65;100912.88;5001982;28;1434;-31
2022/03/07 12:04:46;;;;;;;;;;;;;;;17.05;53.82;100905.94;4999903;28;1994;-31
2022/03/07 12:07:13;;;;;;;;;;;;;;;17.05;54.68;100895.25;5000255;28;1626;-31
2022/03/07 12:09:41;;;;;;;;;;;;;;;17.08;53.74;100905.69;5004430;28;1742;-31
2022/03/07 12:12:08;;;;;;;;;;;;;;;17.08;54.63;100894.16;5003655;28;1659;-31
2022/03/07 12:14:53;;;;;;;;;;;;;;;17.04;54.00;100896.22;5015375;28;1103;-31
2022/03/07 12:17:23;;;;;;;;;;;;;;;17.05;54.84;100900.59;4999850;28;1981;-31
2022/03/07 12:19:56;;;;;;;;;;;;;;;17.04;54.55;100904.22;5005391;28;1077;-31
2022/03/07 12:22:25;;;;;;;;;;;;;;;17.03;54.80;100901.66;5011705;28;1946;-33
2022/03/07 12:24:54;;;;;;;;;;;;;;;17.00;53.85;100897.44;5004376;28;1726;-33
2022/03/07 12:27:24;;;;;;;;;;;;;;;17.03;53.95;100902.53;5011188;28;1948;-33
2022/03/07 12:29:51;;;;;;;;;;;;;;;17.04;53.91;100887.34;4996023;28;1646;-34
2022/03/07 12:32:25;;;;;;;;;;;;;;;17.05;53.83;100894.38;5003627;28;996;-33
2022/03/07 12:34:55;;;;;;;;;;;;;;;17.05;54.92;100905.06;4998464;28;1146;-33
2022/03/07 12:37:22;;;;;;;;;;;;;;;17.05;54.23;100899.72;5002187;28;1976;-35
2022/03/07 12:39:50;;;;;;;;;;;;;;;17.02;54.22;100908.84;5013102;28;1908;-34
2022/03/07 12:42:18;;;;;;;;;;;;;;;17.02;54.22;100900.00;5012869;28;1844;-33
2022/03/07 12:44:46;;;;;;;;;;;;;;;17.01;54.70;100891.13;5014287;28;1731;-34
2022/03/07 12:47:14;;;;;;;;;;;;;;;17.01;53.85;100904.50;5002422;28;1084;-33
2022/03/07 12:49:43;;;;;;;;;;;;;;;17.00;54.50;100897.44;5005674;28;1757;-33
2022/03/07 12:52:27;;;;;;;;;;;;;;;17.02;54.05;100908.84;5002337;28;1873;-34
2022/03/07 12:54:54;;;;;;;;;;;;;;;17.01;54.37;100903.63;5002766;28;1789;-31
2022/03/07 12:57:21;;;;;;;;;;;;;;;16.98;54.11;100903.88;5009142;28;1918;-31
2022/03/07 12:59:57;;;;;;;;;;;;;;;17.00;54.39;100902.78;5013797;28;1644;-32
2022/03/07 13:02:26;;;;;;;;;;;;;;;17.02;53.96;100908.84;4997946;28;1349;-32
2022/03/07 13:05:06;;;;;;;;;;;;;;;17.02;53.98;100902.66;5003536;28;1076;-31